sensor_id;sensor_type;location;lat;lon;timestamp;pressure;altitude;pressure_sealevel;temperature;humidity
24065;BME280;12258;50.940;5.330;2022-07-04T00:02:11;101622.56;;;19.46;100.00
24065;BME280;12258;50.940;5.330;2022-07-04T00:04:37;101621.22;;;19.44;100.00
24065;BME280;12258;50.940;5.330;2022-07-04T00:07:02;101617.91;;;19.42;100.00
24065;BME280;12258;50.940;5.330;2022-07-04T00:09:28;101618.00;;;19.32;100.00
24065;BME280;12258;50.940;5.330;2022-07-04T00:11:53;101627.75;;;19.29;100.00
24065;BME280;12258;50.940;5.330;2022-07-04T00:14:19;101618.88;;;19.27;100.00
24065;BME280;12258;50.940;5.330;2022-07-04T00:16:44;101611.41;;;19.28;100.00
24065;BME280;12258;50.940;5.330;2022-07-04T00:19:10;101623.28;;;19.28;100.00
24065;BME280;12258;50.940;5.330;2022-07-04T00:21:35;101630.84;;;19.23;100.00
24065;BME280;12258;50.940;5.330;2022-07-04T00:24:01;101624.81;;;19.16;100.00
24065;BME280;12258;50.940;5.330;2022-07-04T00:26:26;101620.44;;;19.10;100.00
24065;BME280;12258;50.940;5.330;2022-07-04T00:28:53;101624.31;;;19.09;100.00
24065;BME280;12258;50.940;5.330;2022-07-04T00:31:19;101622.69;;;19.08;100.00
24065;BME280;12258;50.940;5.330;2022-07-04T00:33:44;101610.88;;;18.97;100.00
24065;BME280;12258;50.940;5.330;2022-07-04T00:36:10;101612.81;;;18.97;100.00
24065;BME280;12258;50.940;5.330;2022-07-04T00:38:35;101614.50;;;18.93;100.00
24065;BME280;12258;50.940;5.330;2022-07-04T00:41:01;101612.00;;;18.96;100.00
24065;BME280;12258;50.940;5.330;2022-07-04T00:43:28;101617.00;;;18.94;100.00
24065;BME280;12258;50.940;5.330;2022-07-04T00:45:54;101616.31;;;18.79;100.00
24065;BME280;12258;50.940;5.330;2022-07-04T00:48:19;101612.41;;;18.80;100.00
24065;BME280;12258;50.940;5.330;2022-07-04T00:50:46;101611.38;;;18.76;100.00
24065;BME280;12258;50.940;5.330;2022-07-04T00:53:15;101613.59;;;18.73;100.00
24065;BME280;12258;50.940;5.330;2022-07-04T00:55:42;101607.56;;;18.66;100.00
24065;BME280;12258;50.940;5.330;2022-07-04T00:58:08;101604.19;;;18.69;100.00
24065;BME280;12258;50.940;5.330;2022-07-04T01:00:34;101605.66;;;18.62;100.00
24065;BME280;12258;50.940;5.330;2022-07-04T01:03:00;101601.22;;;18.61;100.00
24065;BME280;12258;50.940;5.330;2022-07-04T01:05:26;101602.09;;;18.56;100.00
24065;BME280;12258;50.940;5.330;2022-07-04T01:07:51;101609.03;;;18.59;100.00
24065;BME280;12258;50.940;5.330;2022-07-04T01:10:18;101601.56;;;18.54;100.00
24065;BME280;12258;50.940;5.330;2022-07-04T01:12:44;101603.31;;;18.45;100.00
24065;BME280;12258;50.940;5.330;2022-07-04T01:15:09;101597.19;;;18.48;100.00
24065;BME280;12258;50.940;5.330;2022-07-04T01:17:35;101599.69;;;18.45;100.00
24065;BME280;12258;50.940;5.330;2022-07-04T01:20:01;101597.53;;;18.37;100.00
24065;BME280;12258;50.940;5.330;2022-07-04T01:22:27;101595.59;;;18.37;100.00
24065;BME280;12258;50.940;5.330;2022-07-04T01:24:52;101592.28;;;18.35;100.00
24065;BME280;12258;50.940;5.330;2022-07-04T01:27:18;101588.16;;;18.33;100.00
24065;BME280;12258;50.940;5.330;2022-07-04T01:29:43;101591.53;;;18.25;100.00
24065;BME280;12258;50.940;5.330;2022-07-04T01:32:09;101591.78;;;18.28;100.00
24065;BME280;12258;50.940;5.330;2022-07-04T01:34:35;101594.03;;;18.26;100.00
24065;BME280;12258;50.940;5.330;2022-07-04T01:37:01;101586.25;;;18.28;100.00
24065;BME280;12258;50.940;5.330;2022-07-04T01:39:27;101584.59;;;18.27;100.00
24065;BME280;12258;50.940;5.330;2022-07-04T01:41:53;101587.38;;;18.27;100.00
24065;BME280;12258;50.940;5.330;2022-07-04T01:44:20;101590.97;;;18.28;100.00
24065;BME280;12258;50.940;5.330;2022-07-04T01:46:45;101593.19;;;18.26;100.00
24065;BME280;12258;50.940;5.330;2022-07-04T01:49:11;101585.75;;;18.21;100.00
24065;BME280;12258;50.940;5.330;2022-07-04T01:51:46;101588.81;;;18.20;100.00
24065;BME280;12258;50.940;5.330;2022-07-04T01:54:13;101595.97;;;18.21;100.00
24065;BME280;12258;50.940;5.330;2022-07-04T01:56:39;101595.19;;;18.15;100.00
24065;BME280;12258;50.940;5.330;2022-07-04T01:59:05;101587.72;;;18.16;100.00
24065;BME280;12258;50.940;5.330;2022-07-04T02:01:30;101594.16;;;18.06;100.00
24065;BME280;12258;50.940;5.330;2022-07-04T02:04:01;101606.84;;;18.07;100.00
24065;BME280;12258;50.940;5.330;2022-07-04T02:06:28;101606.28;;;18.10;100.00
24065;BME280;12258;50.940;5.330;2022-07-04T02:08:54;101610.19;;;18.04;100.00
24065;BME280;12258;50.940;5.330;2022-07-04T02:11:38;101611.91;;;18.00;100.00
24065;BME280;12258;50.940;5.330;2022-07-04T02:14:23;101610.53;;;17.93;100.00
24065;BME280;12258;50.940;5.330;2022-07-04T02:16:49;101615.53;;;17.91;100.00
24065;BME280;12258;50.940;5.330;2022-07-04T02:19:14;101624.66;;;17.91;100.00
24065;BME280;12258;50.940;5.330;2022-07-04T02:21:39;101611.13;;;17.85;100.00
24065;BME280;12258;50.940;5.330;2022-07-04T02:24:05;101615.84;;;17.79;100.00
24065;BME280;12258;50.940;5.330;2022-07-04T02:26:31;101617.22;;;17.87;100.00
24065;BME280;12258;50.940;5.330;2022-07-04T02:28:57;101615.81;;;17.84;100.00
24065;BME280;12258;50.940;5.330;2022-07-04T02:31:22;101610.06;;;17.81;100.00
24065;BME280;12258;50.940;5.330;2022-07-04T02:33:48;101619.16;;;17.81;100.00
24065;BME280;12258;50.940;5.330;2022-07-04T02:36:14;101625.25;;;17.78;100.00
24065;BME280;12258;50.940;5.330;2022-07-04T02:38:40;101623.66;;;17.72;100.00
24065;BME280;12258;50.940;5.330;2022-07-04T02:41:05;101628.91;;;17.69;100.00
24065;BME280;12258;50.940;5.330;2022-07-04T02:43:31;101625.59;;;17.67;100.00
24065;BME280;12258;50.940;5.330;2022-07-04T02:45:56;101625.03;;;17.65;100.00
24065;BME280;12258;50.940;5.330;2022-07-04T02:48:22;101614.84;;;17.60;100.00
24065;BME280;12258;50.940;5.330;2022-07-04T02:50:47;101633.03;;;17.66;100.00
24065;BME280;12258;50.940;5.330;2022-07-04T02:53:12;101635.03;;;17.61;100.00
24065;BME280;12258;50.940;5.330;2022-07-04T02:55:38;101634.19;;;17.55;100.00
24065;BME280;12258;50.940;5.330;2022-07-04T02:58:04;101640.81;;;17.64;100.00
24065;BME280;12258;50.940;5.330;2022-07-04T03:00:29;101635.31;;;17.59;100.00
24065;BME280;12258;50.940;5.330;2022-07-04T03:02:55;101630.88;;;17.58;100.00
24065;BME280;12258;50.940;5.330;2022-07-04T03:05:21;101633.91;;;17.62;100.00
24065;BME280;12258;50.940;5.330;2022-07-04T03:07:46;101640.84;;;17.54;100.00
24065;BME280;12258;50.940;5.330;2022-07-04T03:10:12;101645.25;;;17.55;100.00
24065;BME280;12258;50.940;5.330;2022-07-04T03:12:37;101647.47;;;17.48;100.00
24065;BME280;12258;50.940;5.330;2022-07-04T03:15:03;101641.41;;;17.51;100.00
24065;BME280;12258;50.940;5.330;2022-07-04T03:17:30;101647.47;;;17.48;100.00
24065;BME280;12258;50.940;5.330;2022-07-04T03:19:57;101641.97;;;17.43;100.00
24065;BME280;12258;50.940;5.330;2022-07-04T03:22:22;101649.44;;;17.37;100.00
24065;BME280;12258;50.940;5.330;2022-07-04T03:24:48;101652.75;;;17.34;100.00
24065;BME280;12258;50.940;5.330;2022-07-04T03:27:14;101644.19;;;17.31;100.00
24065;BME280;12258;50.940;5.330;2022-07-04T03:29:40;101645.31;;;17.30;100.00
24065;BME280;12258;50.940;5.330;2022-07-04T03:32:05;101658.03;;;17.21;100.00
24065;BME280;12258;50.940;5.330;2022-07-04T03:34:31;101655.00;;;17.02;100.00
24065;BME280;12258;50.940;5.330;2022-07-04T03:36:57;101651.94;;;17.24;100.00
24065;BME280;12258;50.940;5.330;2022-07-04T03:39:23;101658.59;;;17.18;100.00
24065;BME280;12258;50.940;5.330;2022-07-04T03:41:48;101643.66;;;17.19;100.00
24065;BME280;12258;50.940;5.330;2022-07-04T03:44:14;101661.34;;;17.13;100.00
24065;BME280;12258;50.940;5.330;2022-07-04T03:46:40;101650.31;;;17.13;100.00
24065;BME280;12258;50.940;5.330;2022-07-04T03:49:05;101654.19;;;17.07;100.00
24065;BME280;12258;50.940;5.330;2022-07-04T03:51:31;101644.50;;;17.09;100.00
24065;BME280;12258;50.940;5.330;2022-07-04T03:53:57;101653.63;;;17.05;100.00
24065;BME280;12258;50.940;5.330;2022-07-04T03:56:22;101657.25;;;17.00;100.00
24065;BME280;12258;50.940;5.330;2022-07-04T03:58:48;101653.38;;;16.96;100.00
24065;BME280;12258;50.940;5.330;2022-07-04T04:01:17;101656.41;;;17.00;100.00
24065;BME280;12258;50.940;5.330;2022-07-04T04:03:44;101655.56;;;16.89;100.00
24065;BME280;12258;50.940;5.330;2022-07-04T04:06:28;101664.13;;;16.93;100.00
24065;BME280;12258;50.940;5.330;2022-07-04T04:08:54;101663.84;;;16.89;100.00
24065;BME280;12258;50.940;5.330;2022-07-04T04:11:19;101660.28;;;16.94;100.00
24065;BME280;12258;50.940;5.330;2022-07-04T04:13:45;101662.47;;;17.02;100.00
24065;BME280;12258;50.940;5.330;2022-07-04T04:16:10;101673.53;;;16.97;100.00
24065;BME280;12258;50.940;5.330;2022-07-04T04:18:36;101685.66;;;16.96;100.00
24065;BME280;12258;50.940;5.330;2022-07-04T04:21:02;101687.03;;;16.68;100.00
24065;BME280;12258;50.940;5.330;2022-07-04T04:23:28;101690.63;;;16.84;100.00
24065;BME280;12258;50.940;5.330;2022-07-04T04:25:53;101683.34;;;16.28;100.00
24065;BME280;12258;50.940;5.330;2022-07-04T04:28:19;101690.59;;;16.59;100.00
24065;BME280;12258;50.940;5.330;2022-07-04T04:30:44;101690.94;;;16.92;100.00
24065;BME280;12258;50.940;5.330;2022-07-04T04:33:10;101697.25;;;16.98;100.00
24065;BME280;12258;50.940;5.330;2022-07-04T04:35:35;101696.13;;;17.14;100.00
24065;BME280;12258;50.940;5.330;2022-07-04T04:38:01;101697.25;;;16.98;100.00
24065;BME280;12258;50.940;5.330;2022-07-04T04:40:26;101700.28;;;17.01;100.00
24065;BME280;12258;50.940;5.330;2022-07-04T04:42:52;101708.56;;;17.01;100.00
24065;BME280;12258;50.940;5.330;2022-07-04T04:45:17;101709.66;;;17.15;100.00
24065;BME280;12258;50.940;5.330;2022-07-04T04:47:43;101706.38;;;17.03;100.00
24065;BME280;12258;50.940;5.330;2022-07-04T04:50:10;101706.66;;;17.12;100.00
24065;BME280;12258;50.940;5.330;2022-07-04T04:52:42;101700.00;;;17.03;100.00
24065;BME280;12258;50.940;5.330;2022-07-04T04:55:08;101703.31;;;16.95;100.00
24065;BME280;12258;50.940;5.330;2022-07-04T04:57:35;101707.19;;;17.09;100.00
24065;BME280;12258;50.940;5.330;2022-07-04T05:00:01;101706.91;;;16.70;100.00
24065;BME280;12258;50.940;5.330;2022-07-04T05:02:26;101695.31;;;16.88;100.00
24065;BME280;12258;50.940;5.330;2022-07-04T05:04:53;101700.00;;;16.78;100.00
24065;BME280;12258;50.940;5.330;2022-07-04T05:07:19;101694.50;;;16.98;100.00
24065;BME280;12258;50.940;5.330;2022-07-04T05:09:44;101697.53;;;16.91;100.00
24065;BME280;12258;50.940;5.330;2022-07-04T05:12:10;101702.78;;;17.13;100.00
24065;BME280;12258;50.940;5.330;2022-07-04T05:14:36;101699.72;;;17.19;100.00
24065;BME280;12258;50.940;5.330;2022-07-04T05:17:01;101702.47;;;17.29;100.00
24065;BME280;12258;50.940;5.330;2022-07-04T05:19:27;101699.72;;;17.29;100.00
24065;BME280;12258;50.940;5.330;2022-07-04T05:21:52;101700.00;;;17.23;100.00
24065;BME280;12258;50.940;5.330;2022-07-04T05:24:18;101702.47;;;17.44;100.00
24065;BME280;12258;50.940;5.330;2022-07-04T05:26:43;101707.44;;;17.37;100.00
24065;BME280;12258;50.940;5.330;2022-07-04T05:29:09;101698.88;;;17.49;100.00
24065;BME280;12258;50.940;5.330;2022-07-04T05:31:34;101695.56;;;17.47;100.00
24065;BME280;12258;50.940;5.330;2022-07-04T05:34:00;101693.06;;;17.56;100.00
24065;BME280;12258;50.940;5.330;2022-07-04T05:36:25;101694.19;;;17.44;100.00
24065;BME280;12258;50.940;5.330;2022-07-04T05:38:51;101693.31;;;17.64;100.00
24065;BME280;12258;50.940;5.330;2022-07-04T05:41:17;101690.09;;;17.07;100.00
24065;BME280;12258;50.940;5.330;2022-07-04T05:43:42;101701.34;;;17.35;100.00
24065;BME280;12258;50.940;5.330;2022-07-04T05:46:07;101689.25;;;16.91;100.00
24065;BME280;12258;50.940;5.330;2022-07-04T05:48:33;101692.56;;;17.08;100.00
24065;BME280;12258;50.940;5.330;2022-07-04T05:50:59;101683.41;;;17.33;100.00
24065;BME280;12258;50.940;5.330;2022-07-04T05:53:24;101689.19;;;17.41;100.00
24065;BME280;12258;50.940;5.330;2022-07-04T05:55:50;101685.63;;;17.51;100.00
24065;BME280;12258;50.940;5.330;2022-07-04T05:58:15;101690.03;;;17.42;100.00
24065;BME280;12258;50.940;5.330;2022-07-04T06:00:41;101681.41;;;17.69;100.00
24065;BME280;12258;50.940;5.330;2022-07-04T06:03:08;101681.66;;;17.82;100.00
24065;BME280;12258;50.940;5.330;2022-07-04T06:05:34;101692.44;;;17.79;100.00
24065;BME280;12258;50.940;5.330;2022-07-04T06:08:00;101683.78;;;18.00;100.00
24065;BME280;12258;50.940;5.330;2022-07-04T06:10:26;101687.03;;;18.12;100.00
24065;BME280;12258;50.940;5.330;2022-07-04T06:12:52;101684.53;;;18.16;100.00
24065;BME280;12258;50.940;5.330;2022-07-04T06:15:18;101682.63;;;18.06;100.00
24065;BME280;12258;50.940;5.330;2022-07-04T06:17:43;101686.94;;;18.27;100.00
24065;BME280;12258;50.940;5.330;2022-07-04T06:20:09;101681.38;;;18.37;100.00
24065;BME280;12258;50.940;5.330;2022-07-04T06:22:42;101699.03;;;18.46;100.00
24065;BME280;12258;50.940;5.330;2022-07-04T06:25:17;101691.53;;;18.52;100.00
24065;BME280;12258;50.940;5.330;2022-07-04T06:27:43;101694.94;;;18.77;100.00
24065;BME280;12258;50.940;5.330;2022-07-04T06:30:10;101699.41;;;18.73;100.00
24065;BME280;12258;50.940;5.330;2022-07-04T06:32:46;101695.25;;;18.71;100.00
24065;BME280;12258;50.940;5.330;2022-07-04T06:35:14;101688.41;;;18.63;100.00
24065;BME280;12258;50.940;5.330;2022-07-04T06:38:00;101693.53;;;19.14;100.00
24065;BME280;12258;50.940;5.330;2022-07-04T06:40:26;101700.09;;;19.23;100.00
24065;BME280;12258;50.940;5.330;2022-07-04T06:42:52;101696.19;;;19.29;100.00
24065;BME280;12258;50.940;5.330;2022-07-04T06:45:17;101695.31;;;19.33;100.00
24065;BME280;12258;50.940;5.330;2022-07-04T06:47:43;101697.56;;;19.31;100.00
24065;BME280;12258;50.940;5.330;2022-07-04T06:50:09;101708.59;;;19.60;100.00
24065;BME280;12258;50.940;5.330;2022-07-04T06:52:35;101706.84;;;19.69;100.00
24065;BME280;12258;50.940;5.330;2022-07-04T06:55:01;101709.75;;;19.59;100.00
24065;BME280;12258;50.940;5.330;2022-07-04T06:57:26;101712.16;;;19.65;100.00
24065;BME280;12258;50.940;5.330;2022-07-04T06:59:52;101709.97;;;19.86;100.00
24065;BME280;12258;50.940;5.330;2022-07-04T07:02:18;101698.56;;;20.11;100.00
24065;BME280;12258;50.940;5.330;2022-07-04T07:04:43;101716.31;;;20.34;100.00
24065;BME280;12258;50.940;5.330;2022-07-04T07:07:09;101716.47;;;20.79;100.00
24065;BME280;12258;50.940;5.330;2022-07-04T07:09:35;101715.41;;;21.12;100.00
24065;BME280;12258;50.940;5.330;2022-07-04T07:12:01;101711.94;;;21.20;100.00
24065;BME280;12258;50.940;5.330;2022-07-04T07:14:27;101713.31;;;21.04;100.00
24065;BME280;12258;50.940;5.330;2022-07-04T07:16:52;101697.84;;;21.30;100.00
24065;BME280;12258;50.940;5.330;2022-07-04T07:19:17;101719.13;;;22.21;100.00
24065;BME280;12258;50.940;5.330;2022-07-04T07:21:43;101716.94;;;22.59;100.00
24065;BME280;12258;50.940;5.330;2022-07-04T07:24:09;101719.31;;;22.52;100.00
24065;BME280;12258;50.940;5.330;2022-07-04T07:26:34;101722.66;;;22.76;100.00
24065;BME280;12258;50.940;5.330;2022-07-04T07:29:00;101726.34;;;23.29;100.00
24065;BME280;12258;50.940;5.330;2022-07-04T07:31:25;101716.59;;;23.40;100.00
24065;BME280;12258;50.940;5.330;2022-07-04T07:33:51;101719.06;;;23.72;100.00
24065;BME280;12258;50.940;5.330;2022-07-04T07:36:17;101708.72;;;23.81;100.00
24065;BME280;12258;50.940;5.330;2022-07-04T07:38:42;101703.00;;;23.86;100.00
24065;BME280;12258;50.940;5.330;2022-07-04T07:41:09;101713.00;;;23.79;100.00
24065;BME280;12258;50.940;5.330;2022-07-04T07:43:34;101709.66;;;23.68;100.00
24065;BME280;12258;50.940;5.330;2022-07-04T07:46:00;101713.44;;;24.68;100.00
24065;BME280;12258;50.940;5.330;2022-07-04T07:48:27;101713.84;;;24.36;100.00
24065;BME280;12258;50.940;5.330;2022-07-04T07:50:52;101715.09;;;24.86;100.00
24065;BME280;12258;50.940;5.330;2022-07-04T07:53:18;101723.00;;;24.92;100.00
24065;BME280;12258;50.940;5.330;2022-07-04T07:55:44;101700.25;;;25.19;100.00
24065;BME280;12258;50.940;5.330;2022-07-04T07:58:09;101721.78;;;24.51;100.00
24065;BME280;12258;50.940;5.330;2022-07-04T08:00:35;101709.44;;;25.29;100.00
24065;BME280;12258;50.940;5.330;2022-07-04T08:03:01;101725.34;;;25.62;100.00
24065;BME280;12258;50.940;5.330;2022-07-04T08:05:45;101715.13;;;25.66;99.22
24065;BME280;12258;50.940;5.330;2022-07-04T08:08:10;101725.72;;;25.90;97.37
24065;BME280;12258;50.940;5.330;2022-07-04T08:10:37;101721.09;;;26.52;93.75
24065;BME280;12258;50.940;5.330;2022-07-04T08:13:04;101726.50;;;26.07;97.37
24065;BME280;12258;50.940;5.330;2022-07-04T08:15:30;101711.09;;;25.12;98.49
24065;BME280;12258;50.940;5.330;2022-07-04T08:17:56;101717.94;;;25.66;97.79
24065;BME280;12258;50.940;5.330;2022-07-04T08:20:22;101715.41;;;26.69;93.43
24065;BME280;12258;50.940;5.330;2022-07-04T08:22:48;101709.59;;;25.87;91.54
24065;BME280;12258;50.940;5.330;2022-07-04T08:25:13;101718.16;;;25.90;95.17
24065;BME280;12258;50.940;5.330;2022-07-04T08:27:43;101717.66;;;26.76;89.84
24065;BME280;12258;50.940;5.330;2022-07-04T08:30:09;101717.47;;;26.81;87.88
24065;BME280;12258;50.940;5.330;2022-07-04T08:32:35;101706.97;;;27.22;85.12
24065;BME280;12258;50.940;5.330;2022-07-04T08:35:02;101698.25;;;26.71;82.17
24065;BME280;12258;50.940;5.330;2022-07-04T08:37:27;101711.75;;;25.81;89.43
24065;BME280;12258;50.940;5.330;2022-07-04T08:39:54;101690.91;;;25.99;87.18
24065;BME280;12258;50.940;5.330;2022-07-04T08:42:21;101705.13;;;27.26;85.59
24065;BME280;12258;50.940;5.330;2022-07-04T08:44:53;101695.53;;;27.60;83.51
24065;BME280;12258;50.940;5.330;2022-07-04T08:47:24;101702.28;;;27.35;78.78
24065;BME280;12258;50.940;5.330;2022-07-04T08:49:54;101703.03;;;27.23;75.91
24065;BME280;12258;50.940;5.330;2022-07-04T08:52:39;101717.91;;;28.29;71.93
24065;BME280;12258;50.940;5.330;2022-07-04T08:55:05;101706.44;;;27.29;75.18
24065;BME280;12258;50.940;5.330;2022-07-04T08:57:51;101693.03;;;27.34;80.28
24065;BME280;12258;50.940;5.330;2022-07-04T09:00:35;101696.44;;;27.40;73.55
24065;BME280;12258;50.940;5.330;2022-07-04T09:03:03;101694.41;;;28.33;75.27
24065;BME280;12258;50.940;5.330;2022-07-04T09:05:30;101702.69;;;28.93;72.77
24065;BME280;12258;50.940;5.330;2022-07-04T09:07:58;101689.16;;;29.27;72.14
24065;BME280;12258;50.940;5.330;2022-07-04T09:10:24;101702.50;;;29.14;69.77
24065;BME280;12258;50.940;5.330;2022-07-04T09:12:50;101712.84;;;29.10;71.40
24065;BME280;12258;50.940;5.330;2022-07-04T09:15:16;101698.38;;;29.55;69.55
24065;BME280;12258;50.940;5.330;2022-07-04T09:17:42;101678.91;;;27.55;69.01
24065;BME280;12258;50.940;5.330;2022-07-04T09:20:18;101698.91;;;29.02;66.30
24065;BME280;12258;50.940;5.330;2022-07-04T09:22:46;101696.56;;;28.64;69.03
24065;BME280;12258;50.940;5.330;2022-07-04T09:25:12;101690.31;;;29.38;67.64
24065;BME280;12258;50.940;5.330;2022-07-04T09:27:42;101704.69;;;29.95;66.34
24065;BME280;12258;50.940;5.330;2022-07-04T09:30:13;101702.94;;;30.56;65.71
24065;BME280;12258;50.940;5.330;2022-07-04T09:32:44;101705.34;;;30.73;65.05
24065;BME280;12258;50.940;5.330;2022-07-04T09:37:43;101703.25;;;30.01;64.00
24065;BME280;12258;50.940;5.330;2022-07-04T09:40:32;101710.50;;;29.71;62.11
24065;BME280;12258;50.940;5.330;2022-07-04T09:43:00;101689.66;;;30.38;55.93
24065;BME280;12258;50.940;5.330;2022-07-04T09:45:27;101700.41;;;31.05;59.37
24065;BME280;12258;50.940;5.330;2022-07-04T09:47:57;101715.19;;;29.36;57.44
24065;BME280;12258;50.940;5.330;2022-07-04T09:50:25;101688.63;;;30.46;57.07
24065;BME280;12258;50.940;5.330;2022-07-04T09:53:01;101700.31;;;30.82;56.10
24065;BME280;12258;50.940;5.330;2022-07-04T09:55:31;101688.06;;;31.55;54.72
24065;BME280;12258;50.940;5.330;2022-07-04T09:58:05;101698.03;;;30.88;55.29
24065;BME280;12258;50.940;5.330;2022-07-04T10:00:33;101697.69;;;31.50;53.21
24065;BME280;12258;50.940;5.330;2022-07-04T10:03:23;101687.97;;;31.93;54.62
24065;BME280;12258;50.940;5.330;2022-07-04T10:06:12;101691.94;;;31.88;50.77
24065;BME280;12258;50.940;5.330;2022-07-04T10:08:40;101682.69;;;32.17;52.56
24065;BME280;12258;50.940;5.330;2022-07-04T10:11:07;101686.69;;;30.15;49.98
24065;BME280;12258;50.940;5.330;2022-07-04T10:13:33;101682.31;;;31.48;47.88
24065;BME280;12258;50.940;5.330;2022-07-04T10:15:59;101681.94;;;31.30;47.80
24065;BME280;12258;50.940;5.330;2022-07-04T10:18:25;101696.88;;;31.49;51.68
24065;BME280;12258;50.940;5.330;2022-07-04T10:20:52;101705.63;;;31.03;51.78
24065;BME280;12258;50.940;5.330;2022-07-04T10:23:19;101716.34;;;29.93;53.61
24065;BME280;12258;50.940;5.330;2022-07-04T10:25:49;101676.03;;;32.03;50.97
24065;BME280;12258;50.940;5.330;2022-07-04T10:28:16;101693.13;;;32.65;50.67
24065;BME280;12258;50.940;5.330;2022-07-04T10:30:42;101664.84;;;31.42;52.85
24065;BME280;12258;50.940;5.330;2022-07-04T10:33:11;101662.13;;;32.76;49.89
24065;BME280;12258;50.940;5.330;2022-07-04T10:38:12;101667.97;;;32.57;49.41
24065;BME280;12258;50.940;5.330;2022-07-04T10:40:48;101690.56;;;33.96;52.17
24065;BME280;12258;50.940;5.330;2022-07-04T10:56:48;101671.50;;;33.50;46.93
24065;BME280;12258;50.940;5.330;2022-07-04T10:59:16;101689.13;;;34.20;47.99
24065;BME280;12258;50.940;5.330;2022-07-04T11:05:05;101662.56;;;32.78;42.98
24065;BME280;12258;50.940;5.330;2022-07-04T11:18:03;101653.91;;;33.74;42.31
24065;BME280;12258;50.940;5.330;2022-07-04T11:20:31;101669.09;;;33.95;44.17
24065;BME280;12258;50.940;5.330;2022-07-04T11:25:35;101658.53;;;34.50;44.45
24065;BME280;12258;50.940;5.330;2022-07-04T11:30:56;101650.47;;;34.59;42.99
24065;BME280;12258;50.940;5.330;2022-07-04T11:33:25;101650.53;;;34.77;41.41
24065;BME280;12258;50.940;5.330;2022-07-04T11:38:47;101642.94;;;33.72;40.57
24065;BME280;12258;50.940;5.330;2022-07-04T11:41:14;101636.38;;;34.09;40.84
24065;BME280;12258;50.940;5.330;2022-07-04T11:44:02;101628.72;;;34.91;40.05
24065;BME280;12258;50.940;5.330;2022-07-04T11:46:47;101616.38;;;32.15;41.72
24065;BME280;12258;50.940;5.330;2022-07-04T11:49:12;101610.44;;;33.59;40.94
24065;BME280;12258;50.940;5.330;2022-07-04T11:51:42;101646.84;;;34.66;40.98
24065;BME280;12258;50.940;5.330;2022-07-04T11:54:09;101618.19;;;31.52;42.53
24065;BME280;12258;50.940;5.330;2022-07-04T11:56:35;101647.00;;;35.11;43.55
24065;BME280;12258;50.940;5.330;2022-07-04T11:59:10;101634.53;;;35.83;43.34
24065;BME280;12258;50.940;5.330;2022-07-04T12:01:36;101627.97;;;36.21;43.24
24065;BME280;12258;50.940;5.330;2022-07-04T12:04:31;101638.53;;;35.29;39.87
24065;BME280;12258;50.940;5.330;2022-07-04T12:06:57;101605.59;;;36.19;40.71
24065;BME280;12258;50.940;5.330;2022-07-04T12:09:33;101627.84;;;34.87;37.89
24065;BME280;12258;50.940;5.330;2022-07-04T12:11:59;101611.69;;;35.02;39.18
24065;BME280;12258;50.940;5.330;2022-07-04T12:14:26;101592.88;;;34.62;38.14
24065;BME280;12258;50.940;5.330;2022-07-04T12:17:09;101589.69;;;33.05;38.04
24065;BME280;12258;50.940;5.330;2022-07-04T12:19:35;101623.84;;;34.92;38.07
24065;BME280;12258;50.940;5.330;2022-07-04T12:22:01;101603.72;;;33.78;37.39
24065;BME280;12258;50.940;5.330;2022-07-04T12:24:27;101607.06;;;34.59;41.42
24065;BME280;12258;50.940;5.330;2022-07-04T12:26:52;101614.91;;;34.15;40.52
24065;BME280;12258;50.940;5.330;2022-07-04T12:29:23;101611.59;;;34.02;40.50
24065;BME280;12258;50.940;5.330;2022-07-04T12:31:51;101598.41;;;34.31;39.95
24065;BME280;12258;50.940;5.330;2022-07-04T12:34:18;101617.97;;;34.50;40.33
24065;BME280;12258;50.940;5.330;2022-07-04T12:36:55;101603.06;;;33.98;40.08
24065;BME280;12258;50.940;5.330;2022-07-04T12:39:30;101616.88;;;34.04;38.88
24065;BME280;12258;50.940;5.330;2022-07-04T12:42:23;101594.69;;;35.41;40.79
24065;BME280;12258;50.940;5.330;2022-07-04T12:44:49;101584.53;;;35.54;40.27
24065;BME280;12258;50.940;5.330;2022-07-04T12:47:17;101586.53;;;35.18;39.33
24065;BME280;12258;50.940;5.330;2022-07-04T12:49:45;101597.09;;;32.83;36.43
24065;BME280;12258;50.940;5.330;2022-07-04T12:52:13;101599.16;;;35.80;38.62
24065;BME280;12258;50.940;5.330;2022-07-04T12:54:39;101610.00;;;34.80;36.55
24065;BME280;12258;50.940;5.330;2022-07-04T12:57:14;101614.72;;;34.48;36.87
24065;BME280;12258;50.940;5.330;2022-07-04T12:59:41;101610.44;;;34.92;38.30
24065;BME280;12258;50.940;5.330;2022-07-04T13:02:08;101588.13;;;34.91;38.89
24065;BME280;12258;50.940;5.330;2022-07-04T13:04:35;101587.19;;;34.62;38.34
24065;BME280;12258;50.940;5.330;2022-07-04T13:07:13;101582.34;;;32.34;39.57
24065;BME280;12258;50.940;5.330;2022-07-04T13:09:40;101591.19;;;33.35;39.46
24065;BME280;12258;50.940;5.330;2022-07-04T13:12:06;101603.59;;;32.87;40.24
24065;BME280;12258;50.940;5.330;2022-07-04T13:14:51;101603.47;;;32.73;41.34
24065;BME280;12258;50.940;5.330;2022-07-04T13:17:18;101582.09;;;32.79;40.43
24065;BME280;12258;50.940;5.330;2022-07-04T13:19:44;101601.34;;;33.40;41.50
24065;BME280;12258;50.940;5.330;2022-07-04T13:22:10;101611.00;;;32.95;41.48
24065;BME280;12258;50.940;5.330;2022-07-04T13:24:36;101584.63;;;32.25;42.23
24065;BME280;12258;50.940;5.330;2022-07-04T13:27:02;101573.63;;;32.20;40.62